Time;durP1;ratioP1;P1;durP2;ratioP2;P2;SDS_P1;SDS_P2;PMS_P1;PMS_P2;Temp;Humidity;BMP_temperature;BMP_pressure;BME280_temperature;BME280_humidity;BME280_pressure;Samples;Min_cycle;Max_cycle;Signal;HPM_P1;HPM_P2
2022/08/24 00:02:25;;;;;;;12.57;6.22;;;;;;;19.57;97.35;94604.13;5112408;28;20176;-75
2022/08/24 00:04:51;;;;;;;8.23;5.47;;;;;;;19.61;97.46;94600.94;5103626;28;20278;-75
2022/08/24 00:07:19;;;;;;;10.32;6.18;;;;;;;19.61;96.93;94607.06;5094102;28;20169;-75
2022/08/24 00:09:46;;;;;;;16.20;7.45;;;;;;;19.61;96.60;94614.28;5112485;28;20165;-75
2022/08/24 00:12:13;;;;;;;25.58;16.20;;;;;;;19.54;96.32;94620.72;5112588;28;20253;-75
2022/08/24 00:14:39;;;;;;;26.27;17.77;;;;;;;19.49;96.69;94615.38;5112307;28;20177;-75
2022/08/24 00:17:05;;;;;;;27.13;17.27;;;;;;;19.45;96.44;94616.19;5112311;28;20249;-75
2022/08/24 00:19:33;;;;;;;29.73;19.38;;;;;;;19.44;96.27;94620.72;5112020;28;20249;-75
2022/08/24 00:21:59;;;;;;;32.22;20.42;;;;;;;19.38;97.08;94623.66;5112205;28;20204;-75
2022/08/24 00:24:25;;;;;;;31.50;21.25;;;;;;;19.31;96.88;94626.59;5111991;28;20260;-75
2022/08/24 00:26:52;;;;;;;34.15;22.23;;;;;;;19.35;97.11;94632.22;5112111;28;20679;-76
2022/08/24 00:29:19;;;;;;;27.77;18.13;;;;;;;19.33;97.23;94637.03;5112347;28;20628;-75
2022/08/24 00:31:44;;;;;;;26.50;17.17;;;;;;;19.23;97.27;94633.31;5112159;28;20177;-76
2022/08/24 00:34:12;;;;;;;28.17;15.88;;;;;;;19.24;97.83;94636.78;5112056;28;20195;-75
2022/08/24 00:36:37;;;;;;;21.33;14.90;;;;;;;19.22;98.19;94639.72;5111901;28;20557;-75
2022/08/24 00:39:03;;;;;;;27.90;14.73;;;;;;;19.21;97.87;94643.44;5112131;28;20189;-75
2022/08/24 00:41:29;;;;;;;22.13;14.55;;;;;;;18.90;98.44;94593.06;5093868;28;20176;-76
2022/08/24 00:44:01;;;;;;;21.95;13.40;;;;;;;19.22;98.49;94639.72;5111711;28;20181;-75
2022/08/24 00:46:48;;;;;;;17.17;11.82;;;;;;;19.29;98.53;94638.63;5111953;28;20236;-76
2022/08/24 00:49:20;;;;;;;20.58;12.82;;;;;;;19.31;98.99;94636.47;5111728;28;20188;-76
2022/08/24 00:51:54;;;;;;;24.27;15.23;;;;;;;19.31;99.17;94642.63;5111992;28;20704;-75
2022/08/24 00:54:23;;;;;;;22.60;12.98;;;;;;;19.37;99.39;94644.22;5111754;28;20195;-76
2022/08/24 00:56:53;;;;;;;25.60;16.50;;;;;;;19.41;99.32;94641.81;5111836;28;20264;-75
2022/08/24 00:59:33;;;;;;;24.92;14.77;;;;;;;19.45;99.43;94642.88;5111481;28;20204;-76
2022/08/24 01:02:04;;;;;;;19.92;12.77;;;;;;;19.50;99.90;94641.00;5111010;28;20181;-75
2022/08/24 01:04:39;;;;;;;24.70;15.10;;;;;;;19.31;99.58;94604.44;5111260;28;20223;-75
2022/08/24 01:07:04;;;;;;;25.05;14.77;;;;;;;19.47;98.98;94630.03;5111449;28;20276;-76
2022/08/24 01:09:30;;;;;;;24.50;14.43;;;;;;;19.56;99.15;94645.25;5111619;28;20558;-76
2022/08/24 01:11:55;;;;;;;19.23;13.07;;;;;;;19.60;98.96;94650.88;5111582;28;20187;-76
2022/08/24 01:14:23;;;;;;;22.83;13.85;;;;;;;19.61;99.30;94654.34;5111516;28;20183;-76
2022/08/24 01:19:42;;;;;;;20.55;12.85;;;;;;;19.67;98.33;94651.38;5111194;28;20204;-75
2022/08/24 01:22:10;;;;;;;20.88;12.70;;;;;;;19.59;98.27;94665.28;5093201;28;20625;-75
2022/08/24 01:24:36;;;;;;;18.42;12.60;;;;;;;19.57;98.27;94662.88;5111238;28;20711;-76
2022/08/24 01:27:02;;;;;;;22.73;11.57;;;;;;;19.58;98.12;94663.69;5111352;28;20267;-76
2022/08/24 01:29:32;;;;;;;18.67;12.65;;;;;;;19.58;98.21;94669.03;5111433;28;20264;-76
2022/08/24 01:31:58;;;;;;;18.20;12.50;;;;;;;19.54;98.79;94662.66;5111545;28;20179;-75
2022/08/24 01:34:24;;;;;;;21.80;12.82;;;;;;;19.33;99.39;94666.38;5093297;28;20230;-75
2022/08/24 01:36:55;;;;;;;20.80;12.65;;;;;;;19.35;99.80;94677.59;5111166;28;20176;-75
2022/08/24 01:39:43;;;;;;;29.88;12.82;;;;;;;19.35;99.94;94681.06;5111094;28;20276;-76
2022/08/24 01:42:09;;;;;;;27.60;16.55;;;;;;;19.38;99.50;94674.38;5092970;28;20557;-76
2022/08/24 01:44:37;;;;;;;33.55;18.67;;;;;;;19.41;99.64;94679.19;5111290;28;20173;-76
2022/08/24 01:47:06;;;;;;;35.20;20.05;;;;;;;19.31;99.58;94650.63;5111235;28;20211;-75
2022/08/24 01:49:34;;;;;;;31.63;15.13;;;;;;;19.50;99.10;94673.06;5102788;28;20173;-76
2022/08/24 01:52:00;;;;;;;34.42;15.38;;;;;;;19.36;99.08;94655.97;5111166;28;20655;-76
2022/08/24 01:54:26;;;;;;;40.10;20.27;;;;;;;19.45;99.13;94664.25;5111280;28;20212;-76
2022/08/24 01:56:51;;;;;;;37.33;19.40;;;;;;;19.43;99.40;94666.38;5092876;28;20177;-76
2022/08/24 01:59:19;;;;;;;34.15;21.35;;;;;;;19.41;99.52;94668.50;5111070;28;20193;-76
2022/08/24 02:01:48;;;;;;;71.10;17.70;;;;;;;19.43;99.15;94667.19;5111127;28;20188;-76
2022/08/24 02:04:14;;;;;;;48.53;17.80;;;;;;;19.42;98.50;94665.56;5102319;28;20221;-76
2022/08/24 02:06:40;;;;;;;26.20;13.73;;;;;;;19.39;99.10;94682.13;5108410;28;20204;-76
2022/08/24 02:09:06;;;;;;;30.75;13.93;;;;;;;19.38;98.63;94685.06;5111076;28;20521;-76
2022/08/24 02:11:32;;;;;;;24.48;12.80;;;;;;;19.11;98.76;94650.69;5112425;28;20226;-76
2022/08/24 02:13:58;;;;;;;28.35;16.55;;;;;;;19.10;99.37;94657.88;5114918;28;20177;-75
2022/08/24 02:16:23;;;;;;;24.10;14.32;;;;;;;19.20;99.83;94689.06;5114904;28;20377;-75
2022/08/24 02:18:49;;;;;;;28.40;16.10;;;;;;;19.06;100.00;94670.16;5114646;28;20617;-75
2022/08/24 02:21:15;;;;;;;27.83;14.30;;;;;;;19.21;100.00;94696.81;5114794;28;20659;-75
2022/08/24 02:23:41;;;;;;;23.95;13.02;;;;;;;19.07;100.00;94694.97;5114738;28;20172;-75
2022/08/24 02:26:09;;;;;;;25.65;13.18;;;;;;;19.03;100.00;94692.03;5114686;28;20188;-75
2022/08/24 02:28:35;;;;;;;34.47;15.68;;;;;;;18.99;100.00;94693.63;5114340;28;20180;-75
2022/08/24 02:31:04;;;;;;;42.13;15.15;;;;;;;18.83;100.00;94678.69;5114492;28;20184;-75
2022/08/24 02:33:31;;;;;;;26.40;14.95;;;;;;;19.04;100.00;94701.63;5114576;28;20185;-76
2022/08/24 02:35:56;;;;;;;27.40;14.15;;;;;;;18.87;100.00;94710.97;5114446;28;20234;-75
2022/08/24 02:38:22;;;;;;;27.00;14.50;;;;;;;18.97;100.00;94694.97;5114046;28;20247;-75
2022/08/24 02:40:47;;;;;;;27.50;14.50;;;;;;;19.08;100.00;94700.03;5114368;28;20608;-75
2022/08/24 02:43:13;;;;;;;29.25;16.40;;;;;;;18.99;100.00;94706.97;5113937;28;20215;-75
2022/08/24 02:45:41;;;;;;;24.75;14.70;;;;;;;19.06;100.00;94710.19;5114021;28;20188;-75
2022/08/24 02:48:07;;;;;;;29.25;14.13;;;;;;;19.14;100.00;94698.97;5108783;28;20168;-75
2022/08/24 02:50:38;;;;;;;22.85;13.98;;;;;;;19.16;100.00;94704.03;5113795;28;20173;-75
2022/08/24 02:53:03;;;;;;;21.92;13.90;;;;;;;19.18;100.00;94713.38;5113987;28;20181;-75
2022/08/24 02:55:28;;;;;;;20.58;12.88;;;;;;;19.21;100.00;94715.50;5114000;28;20173;-75
2022/08/24 02:57:54;;;;;;;19.65;12.80;;;;;;;19.26;99.48;94717.38;5114272;28;20580;-76
2022/08/24 03:00:21;;;;;;;21.75;13.60;;;;;;;19.23;99.23;94718.72;5113929;28;20197;-76
2022/08/24 03:02:46;;;;;;;19.85;12.32;;;;;;;19.10;99.66;94702.44;5114134;28;20165;-76
2022/08/24 03:05:13;;;;;;;18.83;12.38;;;;;;;19.23;99.34;94718.72;5114365;28;20231;-76
2022/08/24 03:07:38;;;;;;;23.83;12.85;;;;;;;19.22;99.14;94718.97;5114362;28;20648;-76
2022/08/24 03:10:05;;;;;;;18.33;12.02;;;;;;;19.20;98.80;94713.09;5114132;28;20180;-76
2022/08/24 03:12:31;;;;;;;23.80;12.48;;;;;;;19.11;99.50;94710.16;5114321;28;20591;-76
2022/08/24 03:14:57;;;;;;;46.45;30.08;;;;;;;19.11;99.29;94707.50;5114126;28;20272;-76
2022/08/24 03:17:22;;;;;;;33.35;19.90;;;;;;;19.12;98.96;94711.78;5114004;28;20173;-76
2022/08/24 03:19:49;;;;;;;26.52;15.48;;;;;;;18.82;99.67;94707.25;5113498;28;20207;-76
2022/08/24 03:22:14;;;;;;;30.33;18.10;;;;;;;18.91;99.85;94718.19;5110271;28;20184;-76
2022/08/24 03:24:40;;;;;;;20.55;13.15;;;;;;;19.00;99.49;94726.47;5113458;28;20707;-76
2022/08/24 03:27:05;;;;;;;19.52;12.75;;;;;;;19.01;98.85;94720.06;5113698;28;20719;-76
2022/08/24 03:29:32;;;;;;;22.38;12.50;;;;;;;19.03;98.25;94721.38;5110808;28;20683;-76
2022/08/24 03:31:58;;;;;;;36.20;21.20;;;;;;;19.03;98.39;94720.56;5113335;28;20173;-76
2022/08/24 03:34:23;;;;;;;19.38;12.70;;;;;;;18.98;99.08;94718.72;5113654;28;20177;-76
2022/08/24 03:36:49;;;;;;;23.23;16.17;;;;;;;19.01;98.28;94734.19;5113360;28;20245;-76
2022/08/24 03:39:15;;;;;;;29.42;19.27;;;;;;;18.99;98.58;94723.00;5113306;28;20193;-76
2022/08/24 03:41:40;;;;;;;26.20;17.35;;;;;;;18.96;98.70;94726.19;5113345;28;20604;-76
2022/08/24 03:44:06;;;;;;;21.88;12.73;;;;;;;18.97;98.80;94727.78;5113240;28;20256;-76
2022/08/24 03:46:35;;;;;;;22.85;14.35;;;;;;;19.02;99.29;94724.34;5113069;28;20259;-76
2022/08/24 03:49:03;;;;;;;24.77;13.23;;;;;;;19.03;98.75;94725.91;5113083;28;20173;-77
2022/08/24 03:51:29;;;;;;;17.40;11.68;;;;;;;19.05;98.29;94729.13;5112834;28;20322;-76
2022/08/24 03:53:57;;;;;;;18.23;12.45;;;;;;;19.07;98.67;94732.31;5113072;28;20188;-76
2022/08/24 03:56:23;;;;;;;27.50;12.75;;;;;;;19.10;98.81;94729.13;5113083;28;20230;-76
2022/08/24 03:58:49;;;;;;;19.95;11.52;;;;;;;19.06;98.88;94728.06;5113035;28;20196;-77
2022/08/24 04:01:16;;;;;;;16.58;11.20;;;;;;;19.12;98.78;94727.78;5112792;28;20188;-76
2022/08/24 04:03:43;;;;;;;18.38;11.93;;;;;;;19.19;98.51;94731.00;5112801;28;20165;-76
2022/08/24 04:06:10;;;;;;;22.73;12.23;;;;;;;19.21;98.50;94728.84;5112352;28;20217;-76
2022/08/24 04:08:35;;;;;;;18.00;10.73;;;;;;;19.24;98.14;94730.19;5112659;28;20177;-77
2022/08/24 04:11:02;;;;;;;18.60;11.52;;;;;;;19.07;98.55;94705.66;5112842;28;21650;-76
2022/08/24 04:13:31;;;;;;;25.45;12.07;;;;;;;19.20;98.60;94737.91;5111441;28;20184;-76
2022/08/24 04:16:07;;;;;;;21.00;12.25;;;;;;;19.26;98.61;94732.59;5112387;28;20310;-76
2022/08/24 04:18:33;;;;;;;22.65;12.77;;;;;;;19.25;98.51;94718.44;5111505;28;20269;-76
2022/08/24 04:20:59;;;;;;;23.67;15.45;;;;;;;19.33;98.43;94719.78;5110053;28;20216;-76
2022/08/24 04:23:24;;;;;;;34.10;19.70;;;;;;;19.47;98.21;94729.66;5112855;28;20254;-76
2022/08/24 04:25:50;;;;;;;24.38;14.65;;;;;;;19.38;98.08;94711.75;5112094;28;20530;-76
2022/08/24 04:28:17;;;;;;;21.80;14.07;;;;;;;19.54;97.88;94727.53;5112441;28;20196;-76
2022/08/24 04:30:49;;;;;;;27.70;17.63;;;;;;;19.56;97.78;94741.41;5112470;28;20177;-76
2022/08/24 04:33:16;;;;;;;20.45;13.27;;;;;;;19.59;97.72;94727.53;5111681;28;20612;-76
2022/08/24 04:35:45;;;;;;;20.02;13.57;;;;;;;19.52;97.26;94718.19;5108723;28;20252;-76
2022/08/24 04:38:11;;;;;;;25.38;14.88;;;;;;;19.69;97.60;94733.91;5111725;28;20180;-76
2022/08/24 04:40:41;;;;;;;31.98;21.77;;;;;;;19.79;97.38;94741.91;5108480;28;20169;-76
2022/08/24 04:43:07;;;;;;;42.72;26.75;;;;;;;19.84;97.34;94748.03;5097639;28;20197;-76
2022/08/24 04:45:37;;;;;;;41.45;25.30;;;;;;;19.82;97.17;94750.16;5111388;28;20165;-76
2022/08/24 04:48:03;;;;;;;21.10;13.20;;;;;;;19.81;97.28;94753.91;5112390;28;20176;-76
2022/08/24 04:50:28;;;;;;;21.80;13.65;;;;;;;19.71;97.31;94729.09;5112310;28;20690;-76
2022/08/24 04:52:54;;;;;;;20.40;13.82;;;;;;;19.96;97.33;94753.09;5105033;27;20242;-76
2022/08/24 04:55:19;;;;;;;29.20;18.33;;;;;;;20.08;97.07;94742.06;5100426;28;20517;-76
2022/08/24 04:57:45;;;;;;;38.00;20.17;;;;;;;20.23;97.20;94744.72;5097329;28;20166;-76
2022/08/24 05:00:11;;;;;;;21.80;13.27;;;;;;;20.35;96.41;94737.19;5100110;28;20189;-76
2022/08/24 05:02:39;;;;;;;27.33;16.27;;;;;;;20.49;96.39;94746.25;5099304;28;20272;-76
2022/08/24 05:05:07;;;;;;;21.95;14.65;;;;;;;20.64;95.61;94745.34;5101683;27;20274;-76
2022/08/24 05:07:32;;;;;;;21.55;14.02;;;;;;;20.52;95.07;94740.31;5112033;28;20176;-76
2022/08/24 05:09:58;;;;;;;27.92;15.75;;;;;;;20.41;95.41;94743.34;5112063;28;20252;-76
2022/08/24 05:12:24;;;;;;;23.13;15.80;;;;;;;20.52;96.41;94744.88;5112073;28;20176;-77
2022/08/24 05:14:50;;;;;;;40.05;25.38;;;;;;;20.58;97.18;94736.53;5111819;28;20177;-76
2022/08/24 05:17:15;;;;;;;28.92;17.98;;;;;;;20.77;96.40;94735.91;5111330;28;20176;-76
2022/08/24 05:19:40;;;;;;;25.20;16.65;;;;;;;20.82;96.25;94735.88;5110025;28;20687;-75
2022/08/24 05:22:06;;;;;;;27.00;15.90;;;;;;;20.90;96.44;94719.22;5103745;28;20181;-75
2022/08/24 05:24:32;;;;;;;21.95;15.00;;;;;;;21.26;95.07;94733.19;5110673;28;20183;-75
2022/08/24 05:26:59;;;;;;;21.30;16.13;;;;;;;21.48;94.64;94738.06;5111107;28;20204;-75
2022/08/24 05:29:25;;;;;;;47.22;30.38;;;;;;;21.65;93.79;94735.78;5101144;27;20174;-76
2022/08/24 05:31:50;;;;;;;44.45;27.75;;;;;;;21.74;93.21;94734.88;5107149;28;20176;-75
2022/08/24 05:34:16;;;;;;;34.88;22.30;;;;;;;21.81;92.91;94721.13;5110907;28;20177;-75
2022/08/24 05:36:42;;;;;;;24.15;15.98;;;;;;;22.02;92.71;94725.25;5110996;28;20180;-75
2022/08/24 05:39:10;;;;;;;21.65;13.18;;;;;;;22.46;90.71;94727.66;5110988;28;20199;-75
2022/08/24 05:41:36;;;;;;;14.30;10.60;;;;;;;23.31;87.59;94735.59;5113932;28;20255;-75
2022/08/24 05:44:02;;;;;;;15.02;10.98;;;;;;;24.33;81.10;94745.38;5115963;28;20611;-75
2022/08/24 05:46:30;;;;;;;15.38;9.05;;;;;;;24.96;75.83;94733.03;5112386;28;20215;-76
2022/08/24 05:48:56;;;;;;;11.60;8.73;;;;;;;25.63;74.20;94747.34;5112568;28;20596;-75
2022/08/24 05:51:22;;;;;;;7.75;5.70;;;;;;;26.26;72.39;94752.47;5115118;28;20169;-75
2022/08/24 05:53:47;;;;;;;8.68;6.07;;;;;;;26.58;68.96;94750.50;5115118;28;20218;-75
2022/08/24 05:56:16;;;;;;;8.02;6.00;;;;;;;26.95;68.12;94751.88;5102283;28;20180;-75
2022/08/24 05:58:43;;;;;;;10.90;6.20;;;;;;;27.47;67.14;94752.69;5094659;28;20204;-75
2022/08/24 06:01:16;;;;;;;7.82;5.65;;;;;;;27.89;64.49;94748.34;5096946;28;20249;-75
2022/08/24 06:03:42;;;;;;;10.35;5.78;;;;;;;27.69;63.25;94732.78;5114185;28;20181;-75
2022/08/24 06:06:08;;;;;;;8.63;6.15;;;;;;;27.78;64.66;94749.81;5113799;28;20619;-75
2022/08/24 06:08:35;;;;;;;6.30;5.03;;;;;;;27.61;63.41;94717.38;5113872;28;20176;-75
2022/08/24 06:11:01;;;;;;;5.55;4.82;;;;;;;27.43;63.92;94751.72;5114114;28;20567;-75
2022/08/24 06:13:27;;;;;;;8.13;4.97;;;;;;;27.03;64.10;94749.19;5114497;28;20176;-76
2022/08/24 06:16:11;;;;;;;5.95;5.07;;;;;;;26.67;65.96;94746.72;5114232;28;20607;-77
2022/08/24 06:18:37;;;;;;;6.90;5.38;;;;;;;26.64;67.11;94750.03;5114427;28;20574;-76
2022/08/24 06:21:09;;;;;;;17.58;10.70;;;;;;;26.75;67.11;94744.34;5096428;28;20523;-74
2022/08/24 06:23:35;;;;;;;6.80;5.32;;;;;;;26.80;67.00;94741.50;5114482;28;20201;-74
2022/08/24 06:28:46;;;;;;;7.80;5.63;;;;;;;27.17;64.89;94746.34;5114560;28;20171;-77
2022/08/24 06:31:11;;;;;;;13.23;8.50;;;;;;;27.36;65.78;94746.81;5114505;28;20530;-77
2022/08/24 06:33:37;;;;;;;9.75;6.93;;;;;;;27.52;64.83;94747.09;5114543;28;20550;-74
2022/08/24 06:36:02;;;;;;;21.35;13.68;;;;;;;27.62;64.42;94737.91;5114356;28;20186;-74
2022/08/24 06:38:29;;;;;;;11.63;6.13;;;;;;;27.68;64.52;94750.13;5114079;28;20252;-74
2022/08/24 06:40:55;;;;;;;8.00;5.88;;;;;;;27.62;62.38;94740.59;5113864;28;20172;-73
2022/08/24 06:43:23;;;;;;;6.28;4.97;;;;;;;27.61;60.99;94742.53;5113767;28;20184;-73
2022/08/24 06:45:49;;;;;;;6.60;5.00;;;;;;;27.73;63.05;94739.16;5113859;28;20165;-73
2022/08/24 06:48:15;;;;;;;9.50;6.82;;;;;;;27.96;61.83;94751.34;5113766;28;20181;-76
2022/08/24 06:50:40;;;;;;;9.77;6.03;;;;;;;28.04;61.89;94747.03;5113907;28;20184;-74
2022/08/24 06:53:06;;;;;;;9.35;5.82;;;;;;;28.20;60.09;94755.44;5113844;28;20177;-74
2022/08/24 06:55:32;;;;;;;5.97;4.10;;;;;;;27.89;59.37;94728.63;5113897;28;20192;-74
2022/08/24 06:57:57;;;;;;;4.88;4.07;;;;;;;27.75;58.74;94756.69;5113308;28;20192;-74
2022/08/24 07:00:23;;;;;;;5.20;3.78;;;;;;;27.51;60.79;94756.34;5113932;28;20869;-75
2022/08/24 07:02:50;;;;;;;6.18;3.67;;;;;;;27.32;61.50;94759.41;5096059;28;20197;-74
2022/08/24 07:05:17;;;;;;;7.90;3.75;;;;;;;27.34;61.73;94767.97;5113380;28;20216;-75
2022/08/24 07:07:42;;;;;;;7.32;3.70;;;;;;;27.46;60.56;94769.25;5113708;28;20179;-74
2022/08/24 07:10:09;;;;;;;7.57;3.90;;;;;;;27.55;61.46;94762.75;5113765;28;20173;-75
2022/08/24 07:12:35;;;;;;;9.68;4.55;;;;;;;27.85;60.71;94770.97;5113598;28;20181;-75
2022/08/24 07:15:01;;;;;;;8.35;4.50;;;;;;;27.86;59.62;94773.34;5113634;28;20667;-74
2022/08/24 07:17:27;;;;;;;5.60;4.43;;;;;;;27.93;60.45;94772.88;5113076;28;20185;-74
2022/08/24 07:19:53;;;;;;;9.70;6.72;;;;;;;27.95;60.11;94763.28;5113359;28;20220;-74
2022/08/24 07:22:18;;;;;;;4.70;3.90;;;;;;;28.10;61.51;94773.63;5113341;28;20200;-74
2022/08/24 07:24:43;;;;;;;7.57;4.97;;;;;;;28.02;58.60;94777.13;5113344;28;20825;-75
2022/08/24 07:27:09;;;;;;;7.85;4.60;;;;;;;27.98;59.27;94783.53;5113426;28;20188;-74
2022/08/24 07:29:34;;;;;;;5.57;3.65;;;;;;;27.97;59.10;94784.63;5113325;28;20176;-74
2022/08/24 07:32:00;;;;;;;6.13;4.32;;;;;;;27.84;59.73;94780.22;5113523;28;20248;-74
2022/08/24 07:34:25;;;;;;;5.20;4.35;;;;;;;27.86;62.19;94792.28;5113317;28;20177;-74
2022/08/24 07:36:51;;;;;;;6.38;4.07;;;;;;;27.98;59.30;94783.53;5112887;28;20284;-74
2022/08/24 07:39:17;;;;;;;6.53;4.10;;;;;;;27.95;59.11;94781.44;5112954;28;20201;-74
2022/08/24 07:41:44;;;;;;;5.15;3.10;;;;;;;27.63;58.36;94763.84;5113295;28;20716;-74
2022/08/24 07:44:11;;;;;;;7.20;4.05;;;;;;;27.53;60.53;94769.53;5104817;28;20857;-75
2022/08/24 07:46:39;;;;;;;9.07;4.28;;;;;;;27.42;61.38;94777.19;5094988;28;20184;-74
2022/08/24 07:49:06;;;;;;;8.73;4.43;;;;;;;27.48;60.32;94778.63;5112747;28;20550;-76
2022/08/24 07:51:32;;;;;;;4.68;4.13;;;;;;;27.51;60.80;94769.06;5112858;28;20180;-76
2022/08/24 07:53:58;;;;;;;7.18;3.90;;;;;;;27.64;62.74;94768.94;5113041;28;20176;-74
2022/08/24 07:56:23;;;;;;;5.45;3.83;;;;;;;27.42;59.57;94771.78;5113049;28;20223;-77
2022/08/24 07:58:49;;;;;;;5.18;3.90;;;;;;;27.20;61.12;94761.94;5113148;28;20193;-77
2022/08/24 08:01:14;;;;;;;7.35;4.63;;;;;;;27.07;63.10;94741.22;5113889;28;20229;-81
2022/08/24 08:03:40;;;;;;;6.68;4.32;;;;;;;27.38;62.41;94760.81;5113584;28;20655;-78
2022/08/24 08:06:08;;;;;;;5.28;3.72;;;;;;;27.56;60.21;94760.84;5113072;28;20209;-77
2022/08/24 08:08:36;;;;;;;8.50;3.95;;;;;;;27.66;58.15;94766.72;5112526;28;20173;-75
2022/08/24 08:11:02;;;;;;;5.20;3.22;;;;;;;27.75;58.62;94755.88;5113333;28;20181;-76
2022/08/24 08:13:29;;;;;;;6.10;3.30;;;;;;;27.52;57.61;94759.84;5094779;28;20173;-76
2022/08/24 08:15:55;;;;;;;5.18;3.67;;;;;;;27.27;59.45;94739.81;5113156;28;20706;-76
2022/08/24 08:18:22;;;;;;;4.40;3.28;;;;;;;27.43;60.42;94746.31;5113308;28;20705;-77
2022/08/24 08:20:47;;;;;;;3.40;3.10;;;;;;;27.74;60.40;94752.38;5113421;28;20211;-77
2022/08/24 08:25:58;;;;;;;4.72;3.65;;;;;;;27.87;57.24;94725.44;5106296;28;20625;-76
2022/08/24 08:28:25;;;;;;;6.93;3.95;;;;;;;27.41;56.76;94754.78;5112765;28;20198;-77
2022/08/24 08:30:52;;;;;;;4.93;3.45;;;;;;;27.01;59.95;94742.50;5100853;28;20551;-77
2022/08/24 08:33:17;;;;;;;5.53;3.47;;;;;;;26.95;60.95;94751.88;5107452;28;20579;-76
2022/08/24 08:35:43;;;;;;;5.30;3.50;;;;;;;26.90;60.72;94750.09;5112032;28;20237;-75
2022/08/24 08:38:09;;;;;;;7.07;3.55;;;;;;;26.87;59.78;94747.25;5111941;28;20201;-77
2022/08/24 08:40:44;;;;;;;6.75;4.13;;;;;;;26.62;60.95;94752.28;5112289;28;20204;-77
2022/08/24 08:43:32;;;;;;;6.68;3.50;;;;;;;26.33;60.20;94727.72;5112249;28;20168;-77
2022/08/24 08:46:16;;;;;;;7.50;3.50;;;;;;;26.37;61.39;94738.72;5064746;28;20188;-76
2022/08/24 08:49:04;;;;;;;8.13;4.32;;;;;;;26.33;62.31;94735.03;5112458;28;20165;-76
2022/08/24 08:52:06;;;;;;;6.00;3.42;;;;;;;26.07;65.01;94705.22;5112086;28;20172;-75
2022/08/24 08:54:45;;;;;;;4.07;2.97;;;;;;;26.39;60.94;94739.97;5053496;28;20633;-76
2022/08/24 08:57:55;;;;;;;3.80;3.13;;;;;;;26.73;57.76;94746.56;5111892;28;20169;-75
2022/08/24 09:00:23;;;;;;;3.50;2.40;;;;;;;26.54;58.06;94750.34;5096233;28;20686;-76
2022/08/24 09:02:55;;;;;;;8.05;2.92;;;;;;;26.38;58.79;94746.47;5112188;28;20169;-77
2022/08/24 09:05:54;;;;;;;4.50;3.08;;;;;;;26.29;58.46;94754.53;5095354;28;20275;-78
2022/08/24 09:08:38;;;;;;;6.93;2.95;;;;;;;26.18;60.30;94747.03;5111963;28;20745;-78
2022/08/24 09:11:22;;;;;;;5.32;2.60;;;;;;;26.23;60.24;94734.16;5112344;28;20732;-77
2022/08/24 09:13:54;;;;;;;5.35;3.20;;;;;;;26.40;60.77;94738.84;5103675;28;20248;-77
2022/08/24 09:16:42;;;;;;;6.53;3.08;;;;;;;26.37;59.03;94744.91;5109635;28;20188;-78
2022/08/24 09:19:27;;;;;;;4.30;3.28;;;;;;;26.36;60.35;94737.91;5111655;28;20331;-77
2022/08/24 09:21:58;;;;;;;7.72;3.75;;;;;;;26.40;60.43;94744.25;5111705;28;20171;-75
2022/08/24 09:24:51;;;;;;;4.47;2.83;;;;;;;26.66;59.55;94750.53;5111671;28;20181;-77
2022/08/24 09:27:25;;;;;;;8.70;3.15;;;;;;;26.70;58.86;94747.22;5105432;28;20195;-77
2022/08/24 09:29:52;;;;;;;4.20;3.10;;;;;;;26.96;59.20;94739.97;5111997;28;20172;-77
2022/08/24 09:32:56;;;;;;;3.92;2.83;;;;;;;27.27;60.67;94737.09;5112413;28;20252;-77
2022/08/24 09:35:43;;;;;;;4.35;2.65;;;;;;;27.52;58.70;94740.91;5105176;28;20177;-77
2022/08/24 09:38:21;;;;;;;3.55;3.25;;;;;;;27.42;56.83;94734.72;5110007;28;20172;-77
2022/08/24 09:41:34;;;;;;;3.35;2.65;;;;;;;27.28;56.48;94693.53;5109356;28;20234;-76
2022/08/24 09:44:35;;;;;;;6.25;3.72;;;;;;;27.39;60.00;94724.53;5110510;28;20181;-77
2022/08/24 09:47:10;;;;;;;3.70;2.97;;;;;;;27.52;57.21;94719.25;5109716;28;20177;-77
2022/08/24 09:49:57;;;;;;;11.23;2.40;;;;;;;27.54;57.08;94719.78;5110334;28;20211;-77
2022/08/24 09:52:47;;;;;;;5.05;3.53;;;;;;;27.43;56.86;94711.16;5110509;28;20199;-76
2022/08/24 09:55:43;;;;;;;5.40;3.15;;;;;;;27.31;58.02;94713.75;5110107;28;20201;-77
2022/08/24 09:58:20;;;;;;;6.50;3.28;;;;;;;27.14;56.45;94708.34;5111151;28;20237;-77
2022/08/24 10:01:11;;;;;;;4.97;2.90;;;;;;;27.18;55.19;94710.06;5111201;28;20287;-76
2022/08/24 10:03:40;;;;;;;5.75;2.90;;;;;;;27.25;56.31;94696.06;5111316;28;20248;-77
2022/08/24 10:06:26;;;;;;;4.97;2.80;;;;;;;27.44;57.22;94688.41;5110871;28;20248;-78
2022/08/24 10:09:07;;;;;;;8.38;3.03;;;;;;;27.55;54.88;94691.63;5104272;28;20236;-76
2022/08/24 10:11:46;;;;;;;5.00;3.42;;;;;;;27.38;55.05;94676.19;5104319;28;20177;-79
2022/08/24 10:14:40;;;;;;;3.47;3.03;;;;;;;27.31;53.48;94689.41;5112026;28;20553;-78
2022/08/24 10:17:21;;;;;;;5.05;3.10;;;;;;;27.18;55.44;94657.91;5111055;28;20847;-77
2022/08/24 10:20:18;;;;;;;11.70;3.15;;;;;;;27.34;55.86;94676.03;5110985;28;20296;-79
2022/08/24 10:23:03;;;;;;;6.78;3.13;;;;;;;27.21;55.11;94671.59;5092955;28;20230;-79
2022/08/24 10:25:36;;;;;;;4.32;2.63;;;;;;;27.20;55.65;94671.91;5111268;28;20202;-79
2022/08/24 10:28:18;;;;;;;5.45;3.35;;;;;;;27.18;53.19;94674.94;5093696;28;20173;-79
2022/08/24 10:31:07;;;;;;;6.00;4.32;;;;;;;27.10;55.80;94669.53;5106491;28;20607;-80
2022/08/24 10:33:41;;;;;;;4.22;3.15;;;;;;;27.06;52.81;94679.41;5114844;28;20173;-80
2022/08/24 10:36:26;;;;;;;5.53;3.17;;;;;;;26.79;53.47;94669.69;5104407;28;20184;-80
2022/08/24 10:42:06;;;;;;;7.55;3.50;;;;;;;26.83;55.86;94671.41;5115285;28;20238;-79
2022/08/24 10:44:47;;;;;;;3.65;2.92;;;;;;;27.03;57.40;94670.03;5114873;28;20252;-79
2022/08/24 10:47:18;;;;;;;4.65;3.58;;;;;;;27.26;56.09;94674.13;5115019;28;20180;-80
2022/08/24 10:50:19;;;;;;;4.93;3.00;;;;;;;27.25;53.54;94671.75;5114515;28;20668;-79
2022/08/24 10:53:16;;;;;;;7.65;3.25;;;;;;;27.28;56.24;94674.59;5109908;28;20179;-79
2022/08/24 10:55:42;;;;;;;21.15;5.45;;;;;;;27.28;55.08;94671.09;5101803;28;20157;-77
2022/08/24 10:58:42;;;;;;;4.53;3.22;;;;;;;27.24;55.28;94675.59;5115310;28;20715;-78
2022/08/24 11:01:17;;;;;;;6.75;3.25;;;;;;;26.94;54.42;94672.72;5114852;28;20367;-78
2022/08/24 11:03:49;;;;;;;5.72;3.78;;;;;;;27.00;55.18;94670.66;5114723;28;20168;-78
2022/08/24 11:06:17;;;;;;;4.93;2.90;;;;;;;27.15;55.00;94672.09;5114047;28;20217;-76
2022/08/24 11:08:58;;;;;;;8.07;3.83;;;;;;;27.20;56.57;94661.91;5114467;28;20173;-80
2022/08/24 11:11:34;;;;;;;7.35;3.40;;;;;;;27.03;57.56;94668.13;5114580;28;20187;-76
2022/08/24 11:14:06;;;;;;;11.40;3.33;;;;;;;26.85;58.82;94673.81;5112381;28;20283;-76
2022/08/24 11:16:34;;;;;;;3.40;2.85;;;;;;;26.79;60.01;94662.38;5114113;28;20608;-76
2022/08/24 11:19:04;;;;;;;5.20;3.30;;;;;;;26.66;59.69;94666.00;5112392;28;20192;-76
2022/08/24 11:21:40;;;;;;;11.95;4.38;;;;;;;26.53;60.01;94662.34;5108112;28;20173;-76
2022/08/24 11:24:18;;;;;;;3.45;2.72;;;;;;;26.42;60.85;94654.84;5109929;28;20176;-76
2022/08/24 11:26:57;;;;;;;3.53;2.97;;;;;;;26.37;60.80;94663.13;5111588;28;20647;-76
2022/08/24 11:29:49;;;;;;;3.42;2.72;;;;;;;26.33;60.91;94662.13;5112302;28;20169;-77
2022/08/24 11:32:52;;;;;;;11.50;3.97;;;;;;;26.34;60.17;94653.72;5097339;28;20192;-76
2022/08/24 11:35:25;;;;;;;5.00;2.95;;;;;;;26.18;60.85;94639.84;5050012;28;20190;-76
2022/08/24 11:38:01;;;;;;;4.70;3.15;;;;;;;26.36;60.65;94646.13;5088325;28;20186;-77
2022/08/24 11:40:32;;;;;;;6.85;3.30;;;;;;;26.51;61.06;94651.06;5113678;28;20203;-77
2022/08/24 11:43:10;;;;;;;6.05;3.08;;;;;;;26.68;60.71;94642.19;5113644;28;20173;-77
2022/08/24 11:46:10;;;;;;;4.97;3.22;;;;;;;26.71;60.11;94656.97;5113637;28;20586;-77
2022/08/24 11:49:00;;;;;;;3.75;3.35;;;;;;;26.72;59.43;94645.03;5074417;28;20636;-77
2022/08/24 11:51:48;;;;;;;4.00;3.10;;;;;;;26.71;59.88;94643.44;5113771;28;20192;-77
2022/08/24 11:54:28;;;;;;;7.65;3.97;;;;;;;26.71;60.39;94635.34;5114226;28;20177;-77